createdAt,value
2018-04-30T00:00:19.000Z,99.90
2018-04-30T00:02:45.302Z,99.90
2018-04-30T00:05:11.490Z,99.90
2018-04-30T00:07:37.784Z,99.90
2018-04-30T00:10:04.035Z,99.90
2018-04-30T00:12:31.031Z,99.90
2018-04-30T00:14:57.428Z,99.90
2018-04-30T00:17:23.691Z,99.90
2018-04-30T00:19:49.923Z,99.90
2018-04-30T00:22:17.151Z,99.90
2018-04-30T00:24:43.468Z,99.90
2018-04-30T00:27:09.736Z,99.90
2018-04-30T00:29:35.965Z,99.90
2018-04-30T00:32:02.266Z,99.90
2018-04-30T00:34:28.512Z,99.90
2018-04-30T00:36:54.795Z,99.90
2018-04-30T00:39:21.020Z,99.90
2018-04-30T00:41:47.229Z,99.90
2018-04-30T00:44:13.436Z,99.90
2018-04-30T00:46:39.712Z,99.90
2018-04-30T00:49:05.976Z,99.90
2018-04-30T00:51:33.059Z,99.90
2018-04-30T00:53:59.314Z,99.90
2018-04-30T00:56:26.661Z,99.90
2018-04-30T00:58:52.958Z,99.90
2018-04-30T01:01:19.212Z,99.90
2018-04-30T01:03:45.484Z,99.90
2018-04-30T01:06:11.747Z,99.90
2018-04-30T01:08:37.993Z,99.90
2018-04-30T01:11:05.089Z,99.90
2018-04-30T01:13:31.361Z,99.90
2018-04-30T01:15:57.701Z,99.90
2018-04-30T01:18:23.980Z,99.90
2018-04-30T01:20:50.229Z,99.90
2018-04-30T01:23:16.486Z,99.90
2018-04-30T01:25:42.727Z,99.90
2018-04-30T01:28:09.041Z,99.90
2018-04-30T01:30:35.260Z,99.90
2018-04-30T01:33:01.516Z,99.90
2018-04-30T01:35:28.547Z,99.90
2018-04-30T01:37:54.809Z,99.90
2018-04-30T01:40:21.755Z,99.90
2018-04-30T01:42:48.055Z,99.90
2018-04-30T01:45:15.335Z,99.90
2018-04-30T01:47:41.863Z,99.90
2018-04-30T01:50:08.396Z,99.90
2018-04-30T01:52:34.948Z,99.90
2018-04-30T01:55:01.203Z,99.90
2018-04-30T01:57:28.220Z,99.90
2018-04-30T01:59:54.518Z,99.90
2018-04-30T02:02:20.807Z,99.90
2018-04-30T02:04:47.055Z,99.90
2018-04-30T02:07:13.303Z,99.90
2018-04-30T02:09:39.721Z,99.90
2018-04-30T02:12:06.785Z,99.90
2018-04-30T02:14:33.781Z,99.90
2018-04-30T02:17:00.046Z,99.90
2018-04-30T02:19:26.270Z,99.90
2018-04-30T02:21:52.584Z,99.90
2018-04-30T02:24:19.169Z,99.90
2018-04-30T02:26:45.495Z,99.90
2018-04-30T02:29:12.604Z,99.90
2018-04-30T02:31:38.921Z,98.90
2018-04-30T02:34:05.388Z,98.40
2018-04-30T02:36:32.406Z,97.50
2018-04-30T02:38:58.639Z,95.20
2018-04-30T02:41:25.233Z,94.00
2018-04-30T02:43:51.502Z,94.80
2018-04-30T02:46:18.512Z,93.90
2018-04-30T02:48:44.776Z,91.30
2018-04-30T02:51:11.779Z,91.70
2018-04-30T02:53:38.210Z,92.80
2018-04-30T02:56:04.490Z,92.40
2018-04-30T02:58:30.731Z,93.50
2018-04-30T03:00:56.956Z,92.00
2018-04-30T03:03:23.215Z,92.30
2018-04-30T03:05:50.241Z,93.90
2018-04-30T03:08:16.506Z,95.00
2018-04-30T03:10:42.766Z,94.10
2018-04-30T03:13:09.022Z,93.50
2018-04-30T03:15:35.229Z,93.50
2018-04-30T03:18:01.492Z,92.20
2018-04-30T03:20:27.749Z,92.30
2018-04-30T03:22:53.966Z,91.90
2018-04-30T03:25:20.220Z,92.10
2018-04-30T03:27:46.481Z,91.00
2018-04-30T03:30:13.451Z,90.70
2018-04-30T03:32:39.756Z,89.30
2018-04-30T03:35:06.042Z,91.50
2018-04-30T03:37:32.330Z,90.60
2018-04-30T03:39:59.400Z,92.80
2018-04-30T03:42:25.665Z,94.30
2018-04-30T03:44:51.877Z,93.70
2018-04-30T03:47:19.144Z,91.20
2018-04-30T03:49:45.455Z,92.10
2018-04-30T03:52:11.661Z,92.70
2018-04-30T03:54:38.688Z,93.80
2018-04-30T03:57:04.973Z,95.30
2018-04-30T03:59:31.252Z,92.60
2018-04-30T04:02:15.922Z,93.20
2018-04-30T04:05:00.627Z,92.00
2018-04-30T04:07:27.166Z,93.30
2018-04-30T04:09:53.430Z,92.50
2018-04-30T04:12:19.728Z,92.30
2018-04-30T04:14:46.707Z,91.90
2018-04-30T04:17:13.003Z,93.40
2018-04-30T04:22:33.249Z,93.10
2018-04-30T04:24:59.514Z,92.00
2018-04-30T04:27:25.809Z,92.40
2018-04-30T04:29:52.047Z,92.50
2018-04-30T04:32:19.060Z,93.50
2018-04-30T04:34:45.336Z,93.80
2018-04-30T04:40:05.867Z,97.70
2018-04-30T04:42:32.089Z,93.90
2018-04-30T04:44:58.327Z,93.90
2018-04-30T04:47:24.622Z,95.70
2018-04-30T04:49:50.842Z,95.30
2018-04-30T04:52:17.372Z,94.40
2018-04-30T04:54:43.698Z,95.20
2018-04-30T04:57:09.948Z,95.10
2018-04-30T04:59:37.025Z,95.90
2018-04-30T05:02:03.295Z,96.30
2018-04-30T05:04:29.556Z,96.00
2018-04-30T05:06:56.805Z,95.00
2018-04-30T05:09:25.025Z,95.30
2018-04-30T05:11:52.191Z,96.40
2018-04-30T05:14:19.254Z,95.80
2018-04-30T05:16:46.295Z,96.40
2018-04-30T05:19:12.536Z,95.30
2018-04-30T05:21:39.098Z,93.80
2018-04-30T05:24:06.833Z,93.90
2018-04-30T05:26:34.049Z,94.80
2018-04-30T05:29:00.291Z,92.40
2018-04-30T05:31:26.580Z,92.20
2018-04-30T05:33:52.826Z,89.90
2018-04-30T05:36:19.110Z,89.30
2018-04-30T05:38:46.055Z,90.20
2018-04-30T05:41:13.128Z,87.40
2018-04-30T05:43:40.481Z,88.90
2018-04-30T05:46:06.949Z,88.70
2018-04-30T05:48:33.204Z,89.30
2018-04-30T05:50:59.454Z,89.90
2018-04-30T05:53:25.764Z,85.20
2018-04-30T05:55:52.018Z,84.50
2018-04-30T05:58:18.340Z,86.00
2018-04-30T06:00:44.534Z,86.40
2018-04-30T06:03:11.499Z,86.50
2018-04-30T06:05:37.825Z,87.00
2018-04-30T06:08:04.046Z,86.20
2018-04-30T06:10:31.031Z,83.70
2018-04-30T06:12:58.079Z,82.70
2018-04-30T06:15:24.354Z,84.00
2018-04-30T06:17:50.518Z,82.70
2018-04-30T06:20:16.735Z,84.00
2018-04-30T06:22:42.952Z,82.80
2018-04-30T06:25:09.139Z,83.00
2018-04-30T06:27:36.077Z,82.50
2018-04-30T06:30:02.276Z,82.50
2018-04-30T06:32:28.441Z,82.70
2018-04-30T06:34:56.788Z,84.20
2018-04-30T06:37:23.042Z,84.70
2018-04-30T06:39:50.187Z,85.70
2018-04-30T06:42:17.139Z,84.50
2018-04-30T06:44:44.575Z,86.30
2018-04-30T06:47:10.835Z,86.90
2018-04-30T06:49:37.034Z,87.20
2018-04-30T06:52:03.300Z,88.20
2018-04-30T06:54:29.696Z,86.10
2018-04-30T06:56:55.906Z,85.20
2018-04-30T06:59:22.915Z,86.20
2018-04-30T07:01:49.597Z,85.90
2018-04-30T07:04:15.868Z,86.40
2018-04-30T07:06:42.065Z,84.90
2018-04-30T07:09:08.292Z,84.60
2018-04-30T07:11:35.551Z,85.80
2018-04-30T07:14:01.911Z,84.90
2018-04-30T07:16:28.098Z,86.40
2018-04-30T07:18:54.245Z,83.80
2018-04-30T07:21:20.470Z,85.00
2018-04-30T07:23:47.078Z,88.90
2018-04-30T07:26:13.341Z,83.40
2018-04-30T07:28:39.599Z,85.90
2018-04-30T07:31:05.824Z,82.60
2018-04-30T07:33:32.013Z,86.40
2018-04-30T07:35:58.262Z,88.10
2018-04-30T07:38:24.602Z,87.00
2018-04-30T07:40:50.799Z,88.00
2018-04-30T07:43:16.950Z,90.00
2018-04-30T07:45:44.622Z,88.20
2018-04-30T07:48:10.847Z,87.20
2018-04-30T07:50:37.070Z,90.10
2018-04-30T07:53:03.278Z,90.60
2018-04-30T07:55:29.419Z,87.90
2018-04-30T07:57:56.329Z,84.90
2018-04-30T08:00:22.582Z,85.40
2018-04-30T08:02:49.542Z,83.40
2018-04-30T08:05:15.721Z,84.50
2018-04-30T08:07:41.899Z,80.80
2018-04-30T08:10:08.100Z,82.80
2018-04-30T08:15:26.864Z,87.10
2018-04-30T08:17:53.299Z,81.90
2018-04-30T08:20:19.528Z,79.50
2018-04-30T08:22:46.504Z,84.80
2018-04-30T08:25:12.769Z,85.00
2018-04-30T08:27:38.982Z,82.50
2018-04-30T08:30:05.205Z,83.10
2018-04-30T08:32:31.374Z,77.60
2018-04-30T08:34:59.005Z,78.00
2018-04-30T08:37:25.207Z,77.60
2018-04-30T08:39:51.441Z,77.10
2018-04-30T08:42:17.665Z,79.90
2018-04-30T08:44:44.593Z,77.60
2018-04-30T08:47:10.863Z,83.40
2018-04-30T08:49:37.123Z,82.90
2018-04-30T08:52:03.378Z,82.00
2018-04-30T08:54:29.751Z,80.70
2018-04-30T08:56:56.828Z,80.20
2018-04-30T08:59:23.517Z,77.20
2018-04-30T09:01:49.757Z,78.10
2018-04-30T09:04:15.920Z,83.10
2018-04-30T09:06:42.335Z,82.60
2018-04-30T09:09:09.237Z,87.30
2018-04-30T09:11:35.471Z,87.70
2018-04-30T09:14:01.763Z,82.90
2018-04-30T09:16:27.938Z,80.70
2018-04-30T09:18:54.197Z,85.90
2018-04-30T09:21:22.077Z,89.40
2018-04-30T09:23:48.463Z,87.10
2018-04-30T09:26:14.613Z,85.30
2018-04-30T09:28:42.337Z,84.50
2018-04-30T09:31:08.520Z,83.70
2018-04-30T09:33:34.690Z,84.50
2018-04-30T09:36:00.900Z,85.10
2018-04-30T09:38:27.116Z,79.60
2018-04-30T09:40:53.613Z,79.60
2018-04-30T09:43:19.873Z,80.70
2018-04-30T09:45:46.751Z,83.40
2018-04-30T09:48:12.908Z,83.40
2018-04-30T09:50:39.104Z,85.30
2018-04-30T09:53:05.315Z,83.30
2018-04-30T09:55:31.528Z,82.80
2018-04-30T09:57:57.923Z,79.60
2018-04-30T10:00:23.953Z,76.60
2018-04-30T10:02:50.968Z,81.30
2018-04-30T10:05:17.222Z,81.50
2018-04-30T10:07:43.428Z,81.10
2018-04-30T10:10:10.538Z,84.00
2018-04-30T10:12:36.819Z,83.70
2018-04-30T10:15:04.052Z,84.30
2018-04-30T10:17:30.298Z,82.30
2018-04-30T10:19:56.458Z,81.80
2018-04-30T10:22:22.786Z,86.40
2018-04-30T10:24:49.019Z,82.40
2018-04-30T10:27:15.209Z,83.10
2018-04-30T10:29:41.631Z,84.20
2018-04-30T10:32:07.818Z,83.90
2018-04-30T10:34:34.023Z,81.90
2018-04-30T10:37:00.246Z,79.30
2018-04-30T10:39:26.452Z,80.30
2018-04-30T10:41:52.659Z,79.00
2018-04-30T10:44:20.586Z,81.20
2018-04-30T10:46:46.870Z,80.50
2018-04-30T10:49:13.260Z,79.60
2018-04-30T10:51:40.840Z,78.60
2018-04-30T10:54:08.302Z,75.80
2018-04-30T10:56:35.819Z,79.10
2018-04-30T10:59:04.610Z,78.00
2018-04-30T11:01:32.682Z,77.40
2018-04-30T11:03:59.740Z,76.80
2018-04-30T11:06:26.030Z,76.80
2018-04-30T11:08:53.034Z,75.60
2018-04-30T11:11:20.097Z,79.90
2018-04-30T11:13:46.404Z,80.40
2018-04-30T11:16:12.590Z,79.60
2018-04-30T11:18:38.805Z,81.50
2018-04-30T11:21:05.034Z,82.70
2018-04-30T11:23:31.291Z,82.40
2018-04-30T11:26:00.248Z,82.30
2018-04-30T11:28:27.967Z,83.80
2018-04-30T11:30:55.887Z,83.90
2018-04-30T11:33:22.145Z,85.70
2018-04-30T11:35:49.170Z,78.90
2018-04-30T11:38:15.369Z,75.30
2018-04-30T11:40:41.559Z,71.60
2018-04-30T11:43:10.462Z,77.50
2018-04-30T11:45:36.668Z,74.10
2018-04-30T11:48:02.852Z,73.30
2018-04-30T11:50:29.399Z,68.80
2018-04-30T11:52:55.651Z,71.00
2018-04-30T11:55:21.830Z,71.00
2018-04-30T11:57:48.344Z,70.00
2018-04-30T12:00:16.133Z,73.40
2018-04-30T12:02:42.322Z,75.30
2018-04-30T12:05:08.490Z,73.80
2018-04-30T12:07:37.268Z,74.90
2018-04-30T12:10:03.484Z,76.20
2018-04-30T12:12:30.031Z,76.60
2018-04-30T12:14:56.238Z,79.40
2018-04-30T12:17:23.799Z,75.30
2018-04-30T12:19:50.006Z,76.40
2018-04-30T12:22:16.295Z,70.50
2018-04-30T12:24:42.723Z,71.20
2018-04-30T12:27:08.906Z,67.00
2018-04-30T12:29:35.050Z,68.20
2018-04-30T12:32:01.231Z,62.90
2018-04-30T12:34:27.457Z,63.20
2018-04-30T12:36:55.531Z,55.00
2018-04-30T12:39:22.676Z,58.70
2018-04-30T12:41:49.022Z,58.60
2018-04-30T12:44:15.160Z,56.00
2018-04-30T12:46:41.386Z,57.00
2018-04-30T12:49:07.539Z,58.50
2018-04-30T12:51:33.704Z,70.40
2018-04-30T12:53:59.899Z,69.80
2018-04-30T12:56:26.088Z,74.10
2018-04-30T12:58:52.280Z,79.50
2018-04-30T13:01:19.528Z,82.20
2018-04-30T13:03:45.805Z,83.90
2018-04-30T13:06:12.043Z,80.90
2018-04-30T13:08:38.287Z,79.60
2018-04-30T13:11:04.513Z,82.70
2018-04-30T13:13:30.696Z,83.50
2018-04-30T13:15:56.870Z,79.20
2018-04-30T13:18:23.801Z,72.80
2018-04-30T13:20:49.944Z,72.90
2018-04-30T13:23:16.104Z,71.20
2018-04-30T13:25:42.310Z,74.80
2018-04-30T13:28:08.440Z,74.10
2018-04-30T13:30:35.260Z,75.30
2018-04-30T13:33:02.643Z,75.80
2018-04-30T13:35:30.694Z,71.60
2018-04-30T13:38:00.499Z,71.30
2018-04-30T13:40:26.767Z,71.30
2018-04-30T13:42:52.944Z,72.50
2018-04-30T13:45:19.111Z,69.70
2018-04-30T13:47:45.289Z,68.40
2018-04-30T13:50:11.501Z,67.50
2018-04-30T13:52:37.689Z,69.70
2018-04-30T13:55:04.915Z,69.40
2018-04-30T13:57:31.304Z,60.00
2018-04-30T13:59:57.478Z,56.90
2018-04-30T14:02:23.822Z,57.20
2018-04-30T14:04:49.960Z,55.70
2018-04-30T14:07:16.880Z,54.50
2018-04-30T14:09:43.060Z,54.20
2018-04-30T14:12:09.238Z,53.90
2018-04-30T14:14:36.578Z,55.10
2018-04-30T14:17:02.740Z,54.60
2018-04-30T14:19:28.937Z,56.60
2018-04-30T14:21:55.103Z,55.80
2018-04-30T14:24:21.251Z,55.10
2018-04-30T14:26:47.425Z,54.80
2018-04-30T14:29:13.669Z,53.50
2018-04-30T14:31:39.871Z,53.40
2018-04-30T14:34:06.750Z,57.90
2018-04-30T14:36:33.419Z,57.60
2018-04-30T14:38:59.696Z,57.80
2018-04-30T14:41:26.003Z,58.40
2018-04-30T14:43:52.206Z,58.30
2018-04-30T14:46:19.210Z,59.90
2018-04-30T14:48:45.442Z,60.00
2018-04-30T14:51:11.945Z,59.00
2018-04-30T14:53:38.352Z,59.70
2018-04-30T14:56:09.142Z,58.00
2018-04-30T14:58:36.289Z,59.60
2018-04-30T15:01:03.262Z,58.40
2018-04-30T15:03:30.510Z,58.10
2018-04-30T15:05:57.798Z,58.60
2018-04-30T15:08:24.373Z,57.70
2018-04-30T15:10:50.634Z,56.20
2018-04-30T15:13:17.349Z,55.40
2018-04-30T15:15:44.702Z,57.60
2018-04-30T15:18:10.961Z,56.60
2018-04-30T15:20:38.838Z,53.60
2018-04-30T15:23:06.670Z,48.60
2018-04-30T15:25:32.895Z,46.10
2018-04-30T15:27:59.146Z,45.90
2018-04-30T15:30:25.986Z,43.30
2018-04-30T15:32:52.206Z,43.20
2018-04-30T15:35:18.460Z,43.50
2018-04-30T15:37:44.631Z,43.50
2018-04-30T15:40:12.520Z,43.20
2018-04-30T15:42:38.781Z,43.20
2018-04-30T15:45:04.935Z,44.60
2018-04-30T15:47:31.139Z,44.30
2018-04-30T15:49:58.763Z,43.80
2018-04-30T15:52:24.995Z,43.80
2018-04-30T15:54:52.079Z,44.60
2018-04-30T15:57:18.303Z,45.10
2018-04-30T15:59:44.496Z,44.80
2018-04-30T16:02:10.666Z,42.90
2018-04-30T16:04:37.835Z,41.80
2018-04-30T16:07:04.775Z,42.40
2018-04-30T16:09:31.011Z,42.40
2018-04-30T16:11:57.212Z,42.30
2018-04-30T16:14:25.612Z,41.80
2018-04-30T16:16:51.780Z,40.50
2018-04-30T16:19:17.941Z,41.00
2018-04-30T16:21:44.364Z,40.20
2018-04-30T16:24:10.538Z,40.70
2018-04-30T16:26:36.727Z,41.80
2018-04-30T16:29:02.944Z,41.20
2018-04-30T16:31:29.166Z,40.50
2018-04-30T16:33:55.347Z,40.40
2018-04-30T16:36:21.659Z,40.60
2018-04-30T16:38:47.948Z,40.10
2018-04-30T16:41:15.868Z,38.70
2018-04-30T16:43:42.072Z,38.80
2018-04-30T16:46:08.288Z,44.50
2018-04-30T16:48:34.473Z,45.30
2018-04-30T16:51:00.629Z,44.90
2018-04-30T16:53:26.869Z,44.30
2018-04-30T16:55:53.054Z,44.60
2018-04-30T16:58:19.187Z,44.60
2018-04-30T17:00:45.358Z,45.60
2018-04-30T17:03:11.508Z,45.50
2018-04-30T17:05:37.698Z,46.40
2018-04-30T17:08:04.599Z,52.50
2018-04-30T17:10:30.864Z,52.60
2018-04-30T17:12:56.994Z,57.40
2018-04-30T17:15:23.181Z,56.90
2018-04-30T17:17:49.471Z,59.70
2018-04-30T17:20:16.346Z,64.40
2018-04-30T17:22:42.485Z,64.30
2018-04-30T17:25:09.407Z,67.60
2018-04-30T17:27:35.574Z,67.60
2018-04-30T17:30:01.826Z,71.70
2018-04-30T17:32:28.975Z,76.30
2018-04-30T17:34:56.018Z,88.40
2018-04-30T17:37:22.782Z,88.40
2018-04-30T17:39:50.084Z,93.20
2018-04-30T17:42:19.027Z,92.90
2018-04-30T17:44:45.273Z,92.80
2018-04-30T17:47:12.675Z,94.60
2018-04-30T17:49:54.762Z,94.60
2018-04-30T17:52:21.203Z,93.40
2018-04-30T17:54:47.542Z,94.40
2018-04-30T17:57:14.238Z,93.90
2018-04-30T17:59:41.826Z,91.90
2018-04-30T18:02:08.188Z,91.90
2018-04-30T18:04:35.429Z,92.20
2018-04-30T18:07:01.776Z,91.20
2018-04-30T18:09:30.104Z,93.30
2018-04-30T18:11:57.759Z,92.80
2018-04-30T18:14:24.058Z,92.20
2018-04-30T18:16:50.450Z,91.20
2018-04-30T18:19:16.611Z,92.20
2018-04-30T18:21:43.518Z,90.70
2018-04-30T18:24:09.781Z,90.70
2018-04-30T18:26:35.966Z,91.50
2018-04-30T18:29:02.157Z,90.60
2018-04-30T18:31:28.329Z,89.30
2018-04-30T18:33:54.511Z,90.50
2018-04-30T18:36:21.420Z,88.90
2018-04-30T18:38:47.602Z,88.60
2018-04-30T18:41:13.746Z,85.20
2018-04-30T18:43:39.960Z,90.00
2018-04-30T18:46:07.023Z,81.20
2018-04-30T18:48:33.641Z,80.80
2018-04-30T18:50:59.875Z,77.00
2018-04-30T18:53:26.110Z,74.70
2018-04-30T18:55:52.307Z,71.60
2018-04-30T18:58:18.467Z,76.10
2018-04-30T19:00:44.627Z,81.90
2018-04-30T19:03:10.835Z,81.90
2018-04-30T19:05:37.071Z,87.20
2018-04-30T19:08:03.313Z,86.70
2018-04-30T19:10:30.506Z,87.20
2018-04-30T19:12:56.726Z,89.60
2018-04-30T19:15:22.907Z,92.40
2018-04-30T19:17:49.055Z,99.90
2018-04-30T19:28:43.854Z,99.90
2018-04-30T19:31:09.992Z,91.00
2018-04-30T19:33:36.887Z,84.10
2018-04-30T19:36:03.050Z,87.60
2018-04-30T19:38:29.183Z,87.20
2018-04-30T19:40:56.055Z,67.80
2018-04-30T19:43:22.548Z,68.90
2018-04-30T19:45:48.733Z,67.50
2018-04-30T19:48:15.975Z,62.90
2018-04-30T19:50:42.095Z,65.60
2018-04-30T19:53:08.246Z,59.50
2018-04-30T19:55:34.370Z,55.70
2018-04-30T19:58:00.723Z,53.70
2018-04-30T20:00:26.846Z,53.20
2018-04-30T20:02:52.953Z,53.00
2018-04-30T20:05:19.865Z,49.80
2018-04-30T20:07:46.015Z,49.60
2018-04-30T20:10:13.610Z,47.10
2018-04-30T20:12:39.725Z,50.10
2018-04-30T20:15:06.578Z,47.70
2018-04-30T20:17:32.789Z,50.80
2018-04-30T20:19:58.923Z,44.80
2018-04-30T20:22:25.063Z,48.50
2018-04-30T20:24:51.988Z,44.60
2018-04-30T20:27:18.187Z,47.50
2018-04-30T20:29:44.331Z,43.90
2018-04-30T20:32:10.497Z,43.30
2018-04-30T20:34:36.640Z,42.10
2018-04-30T20:37:02.763Z,42.60
2018-04-30T20:39:28.914Z,41.50
2018-04-30T20:41:55.038Z,46.30
2018-04-30T20:44:21.233Z,41.40
2018-04-30T20:46:48.098Z,39.60
2018-04-30T20:49:14.552Z,39.40
2018-04-30T20:51:40.724Z,39.10
2018-04-30T20:54:06.848Z,39.10
2018-04-30T20:56:32.974Z,42.70
2018-04-30T20:58:59.093Z,38.60
2018-04-30T21:01:25.261Z,34.40
2018-04-30T21:03:51.401Z,34.60
2018-04-30T21:06:17.503Z,35.70
2018-04-30T21:09:02.169Z,34.90
2018-04-30T21:11:28.302Z,35.70
2018-04-30T21:13:56.250Z,34.90
2018-04-30T21:16:23.197Z,35.00
2018-04-30T21:18:49.327Z,34.80
2018-04-30T21:21:15.444Z,32.70
2018-04-30T21:23:41.581Z,34.90
2018-04-30T21:26:07.731Z,34.20
2018-04-30T21:28:33.860Z,35.10
2018-04-30T21:31:00.013Z,35.80
2018-04-30T21:33:26.130Z,34.60
2018-04-30T21:35:52.267Z,32.30
2018-04-30T21:38:18.423Z,34.50
2018-04-30T21:40:44.599Z,34.40
2018-04-30T21:43:10.734Z,34.10
2018-04-30T21:45:36.980Z,33.90
2018-04-30T21:48:03.203Z,34.00
2018-04-30T21:50:29.401Z,36.80
2018-04-30T21:52:55.559Z,34.00
2018-04-30T21:55:22.990Z,33.70
2018-04-30T21:57:49.138Z,34.20
2018-04-30T22:00:15.292Z,33.50
2018-04-30T22:02:41.460Z,33.40
2018-04-30T22:05:07.698Z,35.40
2018-04-30T22:07:33.875Z,33.50
2018-04-30T22:10:00.053Z,34.20
2018-04-30T22:12:26.166Z,33.10
2018-04-30T22:14:52.324Z,34.20
2018-04-30T22:17:18.467Z,33.30
2018-04-30T22:19:45.322Z,32.50
2018-04-30T22:22:11.478Z,32.60
2018-04-30T22:24:37.631Z,34.00
2018-04-30T22:27:03.781Z,32.10
2018-04-30T22:29:29.955Z,32.50
2018-04-30T22:31:56.103Z,32.10
2018-04-30T22:34:22.251Z,32.10
2018-04-30T22:36:48.459Z,32.00
2018-04-30T22:39:14.607Z,31.80
2018-04-30T22:41:40.770Z,31.80
2018-04-30T22:44:06.886Z,32.00
2018-04-30T22:46:32.987Z,31.80
2018-04-30T22:48:59.127Z,31.60
2018-04-30T22:51:25.237Z,31.60
2018-04-30T22:53:52.123Z,31.70
2018-04-30T22:56:18.330Z,31.60
2018-04-30T22:58:44.483Z,31.50
2018-04-30T23:01:10.659Z,31.50
2018-04-30T23:03:37.559Z,31.10
2018-04-30T23:06:03.743Z,29.30
2018-04-30T23:08:29.925Z,31.10
2018-04-30T23:10:56.086Z,31.00
2018-04-30T23:13:22.293Z,31.00
2018-04-30T23:15:48.545Z,31.00
2018-04-30T23:18:14.723Z,30.90
2018-04-30T23:20:40.882Z,30.80
2018-04-30T23:23:07.070Z,30.70
2018-04-30T23:25:33.960Z,30.60
2018-04-30T23:28:00.108Z,30.50
2018-04-30T23:30:26.259Z,30.60
2018-04-30T23:32:52.460Z,30.50
2018-04-30T23:35:18.645Z,30.60
2018-04-30T23:37:45.559Z,30.60
2018-04-30T23:40:11.722Z,30.80
2018-04-30T23:42:37.858Z,30.50
2018-04-30T23:45:04.028Z,30.40
2018-04-30T23:47:30.195Z,30.20
2018-04-30T23:49:56.367Z,30.30
2018-04-30T23:52:22.517Z,30.20
2018-04-30T23:54:48.736Z,30.30
2018-04-30T23:57:14.879Z,30.20
2018-04-30T23:59:41.038Z,30.00
